Time;durP1;ratioP1;P1;durP2;ratioP2;P2;SDS_P1;SDS_P2;PMS_P1;PMS_P2;Temp;Humidity;BMP_temperature;BMP_pressure;BME280_temperature;BME280_humidity;BME280_pressure;Samples;Min_cycle;Max_cycle;Signal;HPM_P1;HPM_P2
2021/03/02 00:02:12;;;;;;;4.32;0.57;;;21.60;52.00;;;;;;4963712;28;20115;-68
2021/03/02 00:04:43;;;;;;;4.50;0.47;;;21.70;52.50;;;;;;4964730;28;20035;-67
2021/03/02 00:07:15;;;;;;;6.60;0.50;;;21.40;50.00;;;;;;4962750;28;20031;-66
2021/03/02 00:09:43;;;;;;;5.88;1.02;;;21.10;52.20;;;;;;4964663;28;20090;-66
2021/03/02 00:12:10;;;;;;;4.40;0.40;;;20.90;52.70;;;;;;4964752;28;20420;-65
2021/03/02 00:14:37;;;;;;;4.50;0.63;;;20.90;50.80;;;;;;4961642;28;20031;-67
2021/03/02 00:17:16;;;;;;;4.38;0.60;;;20.60;53.50;;;;;;4961870;28;20067;-66
2021/03/02 00:20:11;;;;;;;0.88;0.43;;;20.70;51.60;;;;;;4964476;28;20034;-66
2021/03/02 00:22:51;;;;;;;10.00;0.85;;;20.60;51.00;;;;;;4962762;28;20059;-66
2021/03/02 00:25:17;;;;;;;4.80;0.30;;;20.60;50.40;;;;;;4963501;28;20058;-65
2021/03/02 00:27:45;;;;;;;3.10;0.20;;;20.60;51.10;;;;;;4952141;28;20042;-67
2021/03/02 00:30:33;;;;;;;3.03;0.40;;;20.70;50.10;;;;;;4963008;28;20071;-66
2021/03/02 00:33:01;;;;;;;1.33;0.60;;;20.70;50.60;;;;;;4963004;28;20046;-66
2021/03/02 00:35:28;;;;;;;2.15;0.30;;;20.60;49.60;;;;;;4959806;28;20093;-66
2021/03/02 00:37:55;;;;;;;1.83;0.30;;;20.40;50.40;;;;;;4961387;28;20392;-67
2021/03/02 00:40:22;;;;;;;5.43;0.80;;;19.90;49.40;;;;;;4962496;28;20042;-67
2021/03/02 00:42:49;;;;;;;0.63;0.28;;;19.80;50.10;;;;;;4966949;28;20066;-66
2021/03/02 00:45:17;;;;;;;2.05;0.40;;;19.90;51.90;;;;;;4964949;28;20030;-66
2021/03/02 00:47:43;;;;;;;0.95;0.73;;;19.60;55.20;;;;;;4965454;28;20126;-66
2021/03/02 00:50:11;;;;;;;4.95;0.73;;;19.40;56.60;;;;;;4965613;28;20035;-65
2021/03/02 00:52:38;;;;;;;2.67;0.80;;;19.20;56.40;;;;;;4962200;28;20561;-66
2021/03/02 00:55:07;;;;;;;4.38;0.50;;;19.00;54.20;;;;;;4964125;28;20023;-67
2021/03/02 00:57:33;;;;;;;;;;;18.80;54.20;;;;;;4965571;28;21212;-66
2021/03/02 01:00:00;;;;;;;1.55;0.38;;;18.80;53.50;;;;;;4965757;28;19913;-66
2021/03/02 01:02:27;;;;;;;3.83;0.70;;;18.80;53.70;;;;;;4962855;28;20053;-66
2021/03/02 01:04:53;;;;;;;2.13;0.75;;;18.80;53.20;;;;;;4965066;28;20027;-66
2021/03/02 01:07:20;;;;;;;7.55;0.65;;;18.70;53.00;;;;;;4965651;28;20041;-66
2021/03/02 01:09:47;;;;;;;3.25;0.38;;;18.70;54.30;;;;;;4965189;28;20039;-66
2021/03/02 01:12:13;;;;;;;6.13;0.70;;;18.60;53.40;;;;;;4964297;28;20035;-65
2021/03/02 01:14:40;;;;;;;5.90;0.93;;;18.60;53.00;;;;;;4966429;28;20050;-66
2021/03/02 01:17:07;;;;;;;2.70;0.65;;;18.40;53.30;;;;;;4966185;28;20349;-66
2021/03/02 01:19:34;;;;;;;9.40;0.73;;;18.30;52.50;;;;;;4963586;28;20026;-66
2021/03/02 01:22:00;;;;;;;1.45;0.60;;;18.10;52.60;;;;;;4965998;28;20035;-65
2021/03/02 01:24:27;;;;;;;3.75;0.75;;;18.10;53.00;;;;;;4964230;28;20106;-66
2021/03/02 01:26:53;;;;;;;9.25;0.80;;;18.10;52.90;;;;;;4964675;28;20034;-66
2021/03/02 01:29:20;;;;;;;4.97;0.40;;;18.10;52.70;;;;;;4963365;28;20027;-65
2021/03/02 01:31:47;;;;;;;4.35;0.50;;;17.90;53.20;;;;;;4963402;28;20123;-66
2021/03/02 01:34:13;;;;;;;2.45;0.55;;;17.80;53.60;;;;;;4960364;28;20153;-66
2021/03/02 01:36:40;;;;;;;4.70;0.93;;;17.80;53.60;;;;;;4965245;28;20026;-66
2021/03/02 01:39:07;;;;;;;7.35;1.10;;;17.70;53.40;;;;;;4964944;28;20038;-66
2021/03/02 01:41:33;;;;;;;2.47;0.80;;;17.50;53.20;;;;;;4965015;28;20274;-66
2021/03/02 01:44:00;;;;;;;4.25;0.93;;;17.40;52.30;;;;;;4964378;28;20636;-66
2021/03/02 01:46:27;;;;;;;2.53;0.68;;;17.30;52.80;;;;;;4963697;28;20037;-66
2021/03/02 01:48:54;;;;;;;7.10;0.60;;;17.30;52.20;;;;;;4963673;28;20034;-66
2021/03/02 01:51:21;;;;;;;3.90;0.65;;;17.10;52.70;;;;;;4966107;28;20041;-65
2021/03/02 01:53:47;;;;;;;5.18;0.57;;;17.10;52.70;;;;;;4960215;28;20027;-65
2021/03/02 01:56:14;;;;;;;2.22;0.50;;;17.10;52.90;;;;;;4962508;28;20031;-66
2021/03/02 01:58:41;;;;;;;2.63;0.90;;;17.00;53.00;;;;;;4963724;28;20407;-65
2021/03/02 02:01:09;;;;;;;8.55;0.77;;;17.00;53.00;;;;;;4964066;28;20098;-66
2021/03/02 02:03:41;;;;;;;8.23;0.57;;;16.80;54.70;;;;;;4962989;28;20035;-67
2021/03/02 02:06:38;;;;;;;2.65;0.80;;;16.90;53.40;;;;;;4965342;28;20801;-66
2021/03/02 02:09:27;;;;;;;2.28;0.68;;;17.00;53.10;;;;;;4963414;28;20030;-67
2021/03/02 02:11:59;;;;;;;6.60;0.73;;;16.90;54.00;;;;;;4963992;28;20129;-66
2021/03/02 02:14:45;;;;;;;3.00;0.60;;;16.30;55.70;;;;;;4964744;28;21875;-66
2021/03/02 02:17:40;;;;;;;1.17;0.70;;;16.30;55.20;;;;;;4963874;28;20046;-67
2021/03/02 02:20:13;;;;;;;8.38;0.68;;;16.30;56.20;;;;;;4941107;28;20126;-64
2021/03/02 02:23:18;;;;;;;3.25;0.55;;;16.20;56.50;;;;;;4963107;28;20041;-63
2021/03/02 02:26:27;;;;;;;6.57;0.80;;;15.90;57.20;;;;;;4947097;28;20058;-63
2021/03/02 02:28:56;;;;;;;4.43;0.90;;;15.50;57.40;;;;;;4886097;29;20044;-64
2021/03/02 02:31:25;;;;;;;7.67;1.13;;;15.60;57.90;;;;;;4909101;29;20031;-64
2021/03/02 02:33:51;;;;;;;;;;;15.30;58.10;;;;;;4937598;28;20053;-64
2021/03/02 02:36:19;;;;;;;3.15;0.63;;;15.00;59.40;;;;;;4964409;28;19917;-64
2021/03/02 02:38:52;;;;;;;7.32;0.98;;;14.70;61.00;;;;;;4963679;28;20042;-64
2021/03/02 02:41:20;;;;;;;3.38;0.95;;;14.60;62.70;;;;;;4963296;28;20481;-68
2021/03/02 02:43:49;;;;;;;5.55;1.15;;;14.50;62.80;;;;;;4964472;28;20019;-68
2021/03/02 02:46:17;;;;;;;3.80;0.88;;;14.50;63.20;;;;;;4947438;28;20333;-68
2021/03/02 02:48:45;;;;;;;2.58;0.82;;;14.40;63.00;;;;;;4967874;28;20027;-68
2021/03/02 02:51:12;;;;;;;6.18;0.82;;;14.30;62.90;;;;;;4965096;28;20027;-66
2021/03/02 02:53:40;;;;;;;3.08;1.00;;;14.10;64.30;;;;;;4963386;28;20031;-69
2021/03/02 02:56:09;;;;;;;3.50;0.80;;;14.10;65.40;;;;;;4964349;28;20019;-67
2021/03/02 02:59:03;;;;;;;6.30;1.33;;;14.10;65.00;;;;;;4964531;28;20401;-69
2021/03/02 03:01:38;;;;;;;4.40;1.17;;;14.00;65.00;;;;;;4965883;28;20053;-68
2021/03/02 03:04:07;;;;;;;5.28;1.30;;;13.90;65.30;;;;;;4965127;28;20045;-67
2021/03/02 03:06:37;;;;;;;3.10;0.88;;;13.80;66.00;;;;;;4965976;28;20575;-68
2021/03/02 03:09:06;;;;;;;5.47;0.95;;;13.70;67.20;;;;;;4963073;28;20117;-67
2021/03/02 03:11:40;;;;;;;6.93;1.08;;;13.60;67.80;;;;;;4965269;28;20397;-66
2021/03/02 03:14:10;;;;;;;7.65;1.40;;;13.60;68.50;;;;;;4963070;28;20417;-67
2021/03/02 03:16:41;;;;;;;3.40;0.93;;;13.50;68.10;;;;;;4964266;28;20032;-68
2021/03/02 03:19:11;;;;;;;5.38;1.20;;;13.50;67.70;;;;;;4964392;28;20134;-66
2021/03/02 03:21:39;;;;;;;9.55;1.73;;;13.50;67.90;;;;;;4964015;28;20109;-67
2021/03/02 03:24:08;;;;;;;3.45;1.00;;;13.30;68.90;;;;;;4963734;28;20076;-68
2021/03/02 03:26:35;;;;;;;4.50;1.20;;;13.30;69.60;;;;;;4964889;28;20109;-67
2021/03/02 03:29:03;;;;;;;4.88;1.38;;;13.20;70.00;;;;;;4967316;28;20032;-67
2021/03/02 03:31:30;;;;;;;6.65;1.52;;;13.10;69.90;;;;;;4965527;28;20816;-68
2021/03/02 03:33:59;;;;;;;5.63;1.25;;;13.10;69.70;;;;;;4964819;28;20030;-67
2021/03/02 03:36:29;;;;;;;4.35;1.73;;;13.10;69.70;;;;;;4961524;28;20038;-68
2021/03/02 03:38:55;;;;;;;5.95;2.25;;;13.00;70.50;;;;;;4962458;28;20027;-66
2021/03/02 03:41:22;;;;;;;7.18;1.10;;;12.90;70.50;;;;;;4964063;28;20030;-68
2021/03/02 03:43:49;;;;;;;5.43;1.20;;;12.90;70.30;;;;;;4962820;28;20497;-68
2021/03/02 03:46:16;;;;;;;1.38;0.70;;;12.80;71.50;;;;;;4965906;28;20126;-68
2021/03/02 03:48:42;;;;;;;4.82;1.27;;;12.70;71.40;;;;;;4965738;28;20410;-68
2021/03/02 03:51:09;;;;;;;5.25;1.17;;;12.70;71.40;;;;;;4963664;28;20039;-67
2021/03/02 03:53:39;;;;;;;6.55;1.27;;;12.60;71.90;;;;;;4962185;28;20079;-68
2021/03/02 03:56:07;;;;;;;4.72;1.90;;;12.50;71.20;;;;;;4961495;28;20110;-67
2021/03/02 03:58:35;;;;;;;4.47;1.00;;;12.60;69.90;;;;;;4962595;28;20058;-68
2021/03/02 04:01:03;;;;;;;2.63;1.35;;;12.60;67.60;;;;;;4963779;28;20027;-67
2021/03/02 04:03:33;;;;;;;6.22;1.33;;;12.60;68.70;;;;;;4962130;28;20026;-68
2021/03/02 04:06:01;;;;;;;3.50;1.42;;;12.50;69.70;;;;;;4961044;28;20035;-67
2021/03/02 04:08:29;;;;;;;4.97;1.40;;;12.40;71.40;;;;;;4962441;28;20406;-67
2021/03/02 04:10:56;;;;;;;3.72;1.50;;;12.40;72.10;;;;;;4961382;28;20061;-68
2021/03/02 04:13:23;;;;;;;8.75;1.33;;;12.40;72.10;;;;;;4962816;28;20027;-66
2021/03/02 04:15:49;;;;;;;6.57;1.45;;;12.30;73.00;;;;;;4961056;28;20035;-67
2021/03/02 04:18:18;;;;;;;5.65;1.42;;;12.30;73.00;;;;;;4962144;28;20382;-67
2021/03/02 04:20:48;;;;;;;4.75;1.27;;;12.30;72.00;;;;;;4960974;28;20290;-67
2021/03/02 04:23:15;;;;;;;6.60;1.42;;;12.20;71.80;;;;;;4964361;28;20038;-67
2021/03/02 04:25:41;;;;;;;5.45;1.50;;;12.20;73.20;;;;;;4962004;28;20047;-68
2021/03/02 04:28:08;;;;;;;7.15;1.30;;;12.10;74.90;;;;;;4964346;28;20039;-68
2021/03/02 04:30:35;;;;;;;8.18;1.60;;;12.00;75.40;;;;;;4961384;28;20133;-67
2021/03/02 04:33:03;;;;;;;6.35;1.75;;;12.00;75.10;;;;;;4965183;28;20027;-66
2021/03/02 04:35:30;;;;;;;7.47;1.65;;;11.90;75.50;;;;;;4961762;28;20026;-67
2021/03/02 04:37:57;;;;;;;5.75;1.13;;;12.00;75.10;;;;;;4963087;28;20058;-67
2021/03/02 04:40:23;;;;;;;5.80;1.35;;;12.10;74.10;;;;;;4959695;28;20427;-67
2021/03/02 04:42:50;;;;;;;6.30;2.10;;;12.00;72.80;;;;;;4960944;28;20146;-66
2021/03/02 04:45:17;;;;;;;3.78;1.10;;;11.90;75.10;;;;;;4961589;28;20300;-67
2021/03/02 04:47:46;;;;;;;7.20;1.75;;;11.90;75.10;;;;;;4963172;28;20327;-67
2021/03/02 04:50:14;;;;;;;2.33;1.17;;;11.80;76.20;;;;;;4962272;28;20038;-67
2021/03/02 04:52:42;;;;;;;9.77;1.58;;;11.70;76.40;;;;;;4961437;28;20179;-66
2021/03/02 04:55:09;;;;;;;4.10;1.30;;;11.70;76.30;;;;;;4958288;28;20031;-67
2021/03/02 04:57:36;;;;;;;7.72;1.33;;;11.60;77.10;;;;;;4960718;28;20031;-67
2021/03/02 05:00:06;;;;;;;4.93;1.15;;;11.60;76.00;;;;;;4959506;28;20131;-69
2021/03/02 05:02:33;;;;;;;2.30;0.80;;;11.60;74.70;;;;;;4963248;28;20058;-66
2021/03/02 05:05:00;;;;;;;6.63;0.80;;;11.70;74.40;;;;;;4960366;28;20031;-67
2021/03/02 05:07:26;;;;;;;7.65;0.82;;;11.70;74.10;;;;;;4961347;28;20045;-67
2021/03/02 05:09:53;;;;;;;7.15;1.10;;;11.80;73.00;;;;;;4961213;28;20038;-69
2021/03/02 05:12:19;;;;;;;4.43;1.35;;;11.70;73.80;;;;;;4961506;28;20023;-67
2021/03/02 05:14:46;;;;;;;2.50;1.05;;;11.70;74.10;;;;;;4962186;28;20045;-67
2021/03/02 05:17:13;;;;;;;2.90;1.30;;;11.70;73.10;;;;;;4967304;28;20041;-68
2021/03/02 05:19:40;;;;;;;3.97;1.48;;;11.90;72.60;;;;;;4966179;28;20038;-68
2021/03/02 05:22:07;;;;;;;10.95;1.75;;;11.90;73.70;;;;;;4969218;28;20416;-68
2021/03/02 05:24:34;;;;;;;2.47;1.08;;;11.50;74.50;;;;;;4963772;28;20047;-67
2021/03/02 05:27:00;;;;;;;3.95;1.25;;;11.50;75.10;;;;;;4963679;28;21989;-67
2021/03/02 05:29:27;;;;;;;8.95;1.48;;;11.40;74.10;;;;;;4964345;28;20042;-66
2021/03/02 05:31:53;;;;;;;2.35;1.02;;;11.40;75.10;;;;;;4964567;28;20058;-67
2021/03/02 05:34:20;;;;;;;12.75;2.38;;;11.40;75.40;;;;;;4965483;28;20051;-67
2021/03/02 05:36:47;;;;;;;6.28;1.65;;;11.40;77.40;;;;;;4963495;28;20114;-66
2021/03/02 05:39:14;;;;;;;5.07;1.50;;;11.50;76.10;;;;;;4964536;28;20031;-68
2021/03/02 05:41:42;;;;;;;6.15;0.90;;;11.50;75.70;;;;;;4963706;28;20022;-68
2021/03/02 05:44:13;;;;;;;5.10;0.93;;;11.40;74.40;;;;;;4961905;28;20034;-67
2021/03/02 05:49:15;;;;;;;5.70;1.33;;;11.50;73.10;;;;;;5100648;23;21806;-66
2021/03/02 05:51:42;;;;;;;2.80;1.00;;;11.50;71.30;;;;;;4941525;29;20032;-66
2021/03/02 05:54:11;;;;;;;4.28;1.30;;;11.60;68.50;;;;;;4939795;28;20039;-68
2021/03/02 05:56:41;;;;;;;5.37;1.60;;;11.70;67.80;;;;;;4941487;29;20035;-67
2021/03/02 05:59:08;;;;;;;4.10;1.30;;;11.70;65.90;;;;;;4936073;28;20113;-67
2021/03/02 06:01:36;;;;;;;4.00;1.83;;;11.80;65.70;;;;;;4938381;28;20028;-67
2021/03/02 06:04:06;;;;;;;3.58;1.10;;;11.80;65.80;;;;;;4938159;28;20043;-68
2021/03/02 06:06:33;;;;;;;8.45;1.35;;;11.90;65.40;;;;;;4939871;28;20035;-66
2021/03/02 06:09:00;;;;;;;10.80;1.52;;;11.80;64.80;;;;;;4941622;29;21595;-66
2021/03/02 06:11:32;;;;;;;3.17;0.88;;;11.90;63.80;;;;;;4940975;28;20059;-67
2021/03/02 06:14:20;;;;;;;5.07;0.68;;;11.90;63.50;;;;;;4937853;29;20035;-68
2021/03/02 06:16:51;;;;;;;4.65;1.30;;;11.90;63.90;;;;;;4937117;29;20028;-66
2021/03/02 06:19:19;;;;;;;1.63;1.08;;;11.90;63.90;;;;;;4939632;29;20031;-67
2021/03/02 06:21:46;;;;;;;2.58;1.15;;;11.90;63.60;;;;;;4936086;28;20031;-67
2021/03/02 06:24:12;;;;;;;7.03;1.20;;;11.90;63.60;;;;;;4940051;28;20071;-66
2021/03/02 06:26:39;;;;;;;2.55;1.20;;;11.90;63.60;;;;;;4937839;29;20031;-66
2021/03/02 06:29:14;;;;;;;3.90;1.30;;;11.90;63.10;;;;;;4939590;28;20042;-66
2021/03/02 06:31:45;;;;;;;5.18;1.42;;;11.80;63.60;;;;;;4934929;28;20118;-66
2021/03/02 06:34:19;;;;;;;2.30;1.58;;;11.80;63.10;;;;;;4937965;29;20051;-67
2021/03/02 06:36:54;;;;;;;3.85;1.20;;;11.80;63.50;;;;;;4937888;29;20151;-66
2021/03/02 06:39:30;;;;;;;2.50;1.13;;;11.70;63.40;;;;;;4937425;28;20023;-65
2021/03/02 06:42:35;;;;;;;2.75;0.98;;;11.70;63.60;;;;;;4937276;28;20023;-67
2021/03/02 06:45:16;;;;;;;6.45;1.02;;;11.70;64.00;;;;;;4910393;29;20043;-67
2021/03/02 06:47:43;;;;;;;5.88;1.10;;;11.60;64.00;;;;;;4935699;28;20074;-67
2021/03/02 06:50:11;;;;;;;6.30;1.67;;;11.60;64.30;;;;;;4938806;28;20054;-67
2021/03/02 06:52:39;;;;;;;4.93;1.00;;;11.60;64.10;;;;;;4937466;28;20046;-67
2021/03/02 06:55:22;;;;;;;4.70;1.60;;;11.50;63.90;;;;;;4936584;28;20036;-67
2021/03/02 06:57:50;;;;;;;5.45;0.85;;;11.50;62.20;;;;;;4938716;29;20050;-67
2021/03/02 07:00:31;;;;;;;2.53;0.98;;;11.50;62.30;;;;;;4938278;29;20024;-66
2021/03/02 07:02:58;;;;;;;3.00;1.00;;;11.40;62.00;;;;;;4937599;29;20101;-67
2021/03/02 07:05:24;;;;;;;3.35;1.20;;;11.40;62.90;;;;;;4939685;29;20028;-67
2021/03/02 07:07:59;;;;;;;6.35;1.33;;;11.30;62.40;;;;;;4939141;29;20035;-67
2021/03/02 07:10:27;;;;;;;4.00;1.10;;;11.30;61.60;;;;;;4937952;29;20055;-66
2021/03/02 07:12:55;;;;;;;3.70;1.37;;;11.30;61.40;;;;;;4939076;29;20540;-67
2021/03/02 07:15:24;;;;;;;1.52;1.25;;;11.40;61.40;;;;;;4934802;29;20027;-67
2021/03/02 07:17:53;;;;;;;2.33;1.25;;;11.30;61.30;;;;;;4937309;28;20032;-67
2021/03/02 07:20:23;;;;;;;2.10;0.93;;;11.20;61.90;;;;;;4938494;29;20166;-67
2021/03/02 07:22:52;;;;;;;4.90;1.20;;;11.20;61.50;;;;;;4938420;28;20039;-68
2021/03/02 07:25:20;;;;;;;;;;;11.10;62.70;;;;;;4937466;28;20031;-66
2021/03/02 07:27:49;;;;;;;3.63;1.10;;;10.90;63.60;;;;;;4937787;28;19918;-68
2021/03/02 07:30:16;;;;;;;2.95;1.17;;;10.70;64.30;;;;;;4938512;29;20059;-68
2021/03/02 07:32:44;;;;;;;6.35;1.15;;;10.60;64.50;;;;;;4939740;28;20027;-67
2021/03/02 07:35:16;;;;;;;3.05;1.65;;;10.50;66.10;;;;;;4939580;29;20031;-68
2021/03/02 07:37:43;;;;;;;5.88;1.05;;;10.30;68.60;;;;;;4940912;29;20373;-67
2021/03/02 07:40:11;;;;;;;12.95;1.38;;;10.20;69.00;;;;;;4940608;28;20074;-68
2021/03/02 07:42:38;;;;;;;8.35;1.20;;;10.20;69.00;;;;;;4938955;28;20032;-68
2021/03/02 07:45:17;;;;;;;5.63;1.42;;;10.20;68.00;;;;;;4940038;29;20040;-68
2021/03/02 07:47:52;;;;;;;5.90;1.20;;;10.20;66.20;;;;;;4941044;29;20624;-68
2021/03/02 07:50:19;;;;;;;4.32;1.23;;;10.30;65.50;;;;;;4939817;28;20039;-68
2021/03/02 07:52:47;;;;;;;4.43;1.23;;;10.30;65.10;;;;;;4942229;28;20107;-68
2021/03/02 07:55:26;;;;;;;5.35;1.00;;;10.40;63.30;;;;;;4939158;29;20125;-68
2021/03/02 07:58:13;;;;;;;;;;;10.40;63.40;;;;;;4944468;29;20164;-68
2021/03/02 08:00:40;;;;;;;3.25;0.90;;;10.40;64.80;;;;;;4942076;29;22778;-68
2021/03/02 08:03:27;;;;;;;6.22;1.40;;;10.20;65.30;;;;;;4942439;29;20096;-70
2021/03/02 08:06:01;;;;;;;5.60;0.90;;;10.20;63.50;;;;;;4942959;29;20450;-67
2021/03/02 08:08:29;;;;;;;1.23;1.00;;;10.20;64.10;;;;;;4941901;29;20032;-69
2021/03/02 08:11:22;;;;;;;2.75;0.70;;;10.20;64.10;;;;;;4941837;29;20425;-68
2021/03/02 08:13:49;;;;;;;3.65;1.20;;;10.10;65.20;;;;;;4942488;28;20043;-67
2021/03/02 08:16:35;;;;;;;5.30;1.10;;;9.90;65.80;;;;;;4942240;28;20024;-67
2021/03/02 08:22:18;;;;;;;3.80;2.05;;;9.70;67.90;;;;;;5321842;23;20065;-67
2021/03/02 08:24:51;;;;;;;3.75;1.13;;;9.50;70.70;;;;;;4924635;29;20031;-65
2021/03/02 08:27:37;;;;;;;4.03;1.15;;;9.40;70.90;;;;;;4925899;29;20031;-67
2021/03/02 08:30:24;;;;;;;5.00;1.13;;;9.30;72.50;;;;;;4925302;29;20058;-66
2021/03/02 08:32:53;;;;;;;6.40;1.17;;;9.20;72.60;;;;;;4923907;29;20024;-68
2021/03/02 08:35:23;;;;;;;3.17;1.42;;;9.10;73.50;;;;;;4925296;29;20055;-66
2021/03/02 08:37:55;;;;;;;5.03;1.35;;;9.00;73.10;;;;;;4925206;29;20028;-68
2021/03/02 08:40:25;;;;;;;9.95;1.60;;;8.90;73.20;;;;;;4924638;29;20104;-68
2021/03/02 08:43:07;;;;;;;2.92;1.50;;;8.90;71.90;;;;;;4924930;29;20032;-68
2021/03/02 08:45:50;;;;;;;2.63;1.15;;;8.80;72.60;;;;;;4925929;29;20028;-68
2021/03/02 08:48:29;;;;;;;1.58;1.08;;;8.80;71.60;;;;;;4925712;29;20118;-68
2021/03/02 08:51:01;;;;;;;2.45;0.85;;;8.80;70.20;;;;;;4925922;29;20126;-68
2021/03/02 08:53:41;;;;;;;4.03;1.00;;;8.80;69.30;;;;;;4925989;29;20040;-69
2021/03/02 08:56:14;;;;;;;5.82;1.50;;;8.80;71.60;;;;;;4924897;29;20072;-68
2021/03/02 08:58:43;;;;;;;8.60;1.15;;;8.70;72.50;;;;;;4924347;29;20031;-68
2021/03/02 09:01:15;;;;;;;9.32;1.38;;;8.70;72.60;;;;;;4924044;29;20040;-68
2021/03/02 09:03:46;;;;;;;6.93;1.85;;;8.60;73.90;;;;;;4925294;29;20043;-69
2021/03/02 09:06:26;;;;;;;2.58;1.13;;;8.50;74.60;;;;;;4925040;29;20028;-68
2021/03/02 09:09:01;;;;;;;3.55;1.15;;;8.40;76.00;;;;;;4926079;29;20050;-68
2021/03/02 09:11:31;;;;;;;7.07;1.63;;;8.30;76.10;;;;;;4924188;29;20036;-68
2021/03/02 09:14:01;;;;;;;4.75;1.48;;;8.30;75.50;;;;;;4924698;29;20142;-68
2021/03/02 09:16:37;;;;;;;2.92;1.55;;;8.30;74.60;;;;;;4925163;29;20039;-67
2021/03/02 09:19:14;;;;;;;7.28;1.38;;;8.30;74.60;;;;;;4922347;29;20028;-68
2021/03/02 09:21:54;;;;;;;5.68;1.30;;;8.30;75.90;;;;;;4923313;29;20036;-67
2021/03/02 09:24:23;;;;;;;12.93;2.50;;;8.30;76.50;;;;;;4924150;29;20031;-68
2021/03/02 09:27:04;;;;;;;7.05;1.60;;;8.40;76.90;;;;;;4924373;29;20040;-67
2021/03/02 09:29:40;;;;;;;4.55;1.33;;;8.30;77.50;;;;;;4926068;29;20046;-68
2021/03/02 09:32:08;;;;;;;7.65;1.27;;;8.30;77.10;;;;;;4924286;29;20908;-67
2021/03/02 09:34:39;;;;;;;4.50;1.02;;;8.20;76.30;;;;;;4924455;29;20653;-66
2021/03/02 09:37:08;;;;;;;3.92;0.90;;;8.10;78.70;;;;;;4924778;29;20454;-67
2021/03/02 09:39:35;;;;;;;;;;;8.20;75.90;;;;;;4924686;29;20028;-68
2021/03/02 09:42:01;;;;;;;6.13;1.23;;;8.20;75.90;;;;;;4924177;29;20285;-67
2021/03/02 09:44:31;;;;;;;3.05;1.42;;;8.00;77.20;;;;;;4921011;29;20118;-67
2021/03/02 09:47:06;;;;;;;3.70;1.20;;;7.80;81.10;;;;;;4924395;29;20071;-68
2021/03/02 09:49:42;;;;;;;2.25;0.95;;;7.70;81.90;;;;;;4925382;29;20039;-67
2021/03/02 09:52:21;;;;;;;3.95;1.30;;;7.70;84.40;;;;;;4923971;29;20452;-67
2021/03/02 09:55:08;;;;;;;5.75;1.25;;;7.60;84.30;;;;;;4924483;29;20031;-68
2021/03/02 09:57:52;;;;;;;7.55;1.50;;;7.60;84.00;;;;;;4923738;29;20032;-68
2021/03/02 10:00:27;;;;;;;5.47;1.15;;;7.60;83.10;;;;;;4922792;29;20100;-68
2021/03/02 10:03:07;;;;;;;3.53;1.30;;;7.60;82.50;;;;;;4922378;29;20032;-68
2021/03/02 10:05:41;;;;;;;6.85;1.13;;;7.60;83.30;;;;;;4925386;29;20031;-68
2021/03/02 10:08:33;;;;;;;6.70;1.42;;;7.50;83.30;;;;;;4923974;29;20027;-68
2021/03/02 10:11:00;;;;;;;7.32;1.80;;;7.50;83.70;;;;;;4924475;29;20102;-68
2021/03/02 10:13:36;;;;;;;6.55;1.38;;;7.60;84.60;;;;;;4922917;29;21609;-68
2021/03/02 10:16:27;;;;;;;10.65;1.85;;;7.60;81.60;;;;;;4924660;29;20040;-68
2021/03/02 10:19:03;;;;;;;3.25;1.13;;;7.70;79.80;;;;;;4923400;29;20111;-68
2021/03/02 10:21:45;;;;;;;6.80;1.27;;;7.80;78.70;;;;;;4923267;29;20210;-68
2021/03/02 10:24:23;;;;;;;17.80;1.30;;;7.70;81.00;;;;;;4923636;29;20047;-68
2021/03/02 10:26:50;;;;;;;4.20;1.27;;;7.60;82.20;;;;;;4922827;29;20430;-66
2021/03/02 10:29:17;;;;;;;4.93;1.42;;;7.60;82.20;;;;;;4923675;29;20390;-66
2021/03/02 10:31:44;;;;;;;6.45;1.27;;;7.50;82.40;;;;;;4923746;29;20043;-68
2021/03/02 10:34:12;;;;;;;3.85;1.50;;;7.50;83.80;;;;;;4923449;29;20147;-68
2021/03/02 10:36:40;;;;;;;5.97;1.80;;;7.50;88.20;;;;;;4922943;29;20058;-68
2021/03/02 10:39:15;;;;;;;6.23;1.27;;;7.30;90.00;;;;;;4924718;29;20291;-68
2021/03/02 10:41:43;;;;;;;5.65;1.88;;;7.20;91.20;;;;;;4924098;29;20301;-68
2021/03/02 10:44:12;;;;;;;3.67;1.67;;;7.20;91.00;;;;;;4924479;29;20556;-68
2021/03/02 10:46:39;;;;;;;13.02;1.75;;;7.20;90.00;;;;;;4922565;29;20151;-68
2021/03/02 10:49:06;;;;;;;4.15;1.10;;;7.30;84.90;;;;;;4922889;29;20041;-67
2021/03/02 10:51:33;;;;;;;7.20;1.42;;;7.40;85.10;;;;;;4922395;29;20251;-68
2021/03/02 10:54:00;;;;;;;5.15;1.02;;;7.30;84.50;;;;;;4922747;29;20424;-68
2021/03/02 10:56:27;;;;;;;14.63;1.85;;;7.30;85.10;;;;;;4923416;29;20027;-67
2021/03/02 10:58:54;;;;;;;7.75;0.98;;;7.20;87.90;;;;;;4924441;29;20469;-68
2021/03/02 11:01:21;;;;;;;4.20;1.50;;;7.00;90.70;;;;;;4922710;29;20035;-68
2021/03/02 11:03:48;;;;;;;3.10;1.25;;;6.90;92.40;;;;;;4924071;29;20036;-68
2021/03/02 11:06:17;;;;;;;6.18;1.67;;;7.00;92.00;;;;;;4922440;29;20083;-68
2021/03/02 11:08:44;;;;;;;5.07;1.50;;;6.90;90.60;;;;;;4922885;29;20218;-68
2021/03/02 11:11:15;;;;;;;2.22;0.82;;;6.90;89.30;;;;;;4923458;29;20091;-68
2021/03/02 11:13:43;;;;;;;6.95;1.27;;;6.80;90.80;;;;;;4923196;29;20027;-68
2021/03/02 11:16:10;;;;;;;2.67;1.17;;;6.70;91.50;;;;;;4923226;29;20051;-68
2021/03/02 11:18:38;;;;;;;5.03;0.95;;;6.70;91.60;;;;;;4920879;29;20036;-69
2021/03/02 11:21:05;;;;;;;4.25;1.00;;;6.80;85.90;;;;;;4923511;29;20062;-67
2021/03/02 11:23:31;;;;;;;4.75;1.27;;;6.80;88.30;;;;;;4927850;29;20143;-69
2021/03/02 11:25:58;;;;;;;6.72;1.20;;;6.90;85.80;;;;;;4923520;29;20063;-68
2021/03/02 11:28:25;;;;;;;5.20;1.00;;;6.80;90.80;;;;;;4923822;29;20036;-68
2021/03/02 11:30:51;;;;;;;1.20;1.10;;;6.70;91.70;;;;;;4923260;29;20098;-67
2021/03/02 11:33:18;;;;;;;5.75;1.00;;;6.70;92.60;;;;;;4923375;29;20496;-67
2021/03/02 11:35:46;;;;;;;6.97;1.13;;;6.70;91.50;;;;;;4923184;29;20063;-67
2021/03/02 11:38:13;;;;;;;8.82;1.40;;;6.80;86.40;;;;;;4924401;29;20509;-66
2021/03/02 11:40:40;;;;;;;3.53;1.42;;;6.80;87.20;;;;;;4923388;29;20070;-67
2021/03/02 11:43:07;;;;;;;5.82;1.05;;;6.80;90.50;;;;;;4921381;29;20043;-68
2021/03/02 11:45:36;;;;;;;6.72;1.20;;;6.80;91.20;;;;;;4920681;29;20047;-67
2021/03/02 11:48:06;;;;;;;4.57;0.95;;;6.80;91.30;;;;;;4923630;29;20039;-68
2021/03/02 11:50:33;;;;;;;4.60;1.00;;;6.80;89.50;;;;;;4922836;29;20041;-68
2021/03/02 11:53:00;;;;;;;2.95;1.00;;;6.90;84.10;;;;;;4923626;29;20039;-67
2021/03/02 11:55:27;;;;;;;3.33;1.23;;;7.10;80.90;;;;;;4918303;29;20042;-67
2021/03/02 11:57:54;;;;;;;2.55;1.00;;;7.10;82.00;;;;;;4921949;29;20070;-67
2021/03/02 12:00:22;;;;;;;2.25;1.23;;;7.00;82.40;;;;;;4923006;29;20019;-67
2021/03/02 12:02:50;;;;;;;2.57;1.20;;;7.00;82.00;;;;;;4921109;29;20032;-67
2021/03/02 12:05:19;;;;;;;2.20;0.70;;;7.00;81.50;;;;;;4922507;29;20032;-67
2021/03/02 12:07:47;;;;;;;3.47;0.82;;;7.10;81.20;;;;;;4922158;29;20055;-67
2021/03/02 12:10:16;;;;;;;3.38;1.23;;;7.10;80.90;;;;;;4921840;29;20410;-67
2021/03/02 12:12:44;;;;;;;3.85;1.77;;;7.10;81.70;;;;;;4921235;29;20122;-67
2021/03/02 12:15:11;;;;;;;1.63;0.93;;;7.00;81.40;;;;;;4922800;29;20036;-67
2021/03/02 12:17:39;;;;;;;5.25;1.10;;;6.80;82.80;;;;;;4920712;29;20038;-67
2021/03/02 12:20:08;;;;;;;3.25;1.10;;;6.80;85.10;;;;;;4922145;29;20046;-67
2021/03/02 12:22:39;;;;;;;2.10;0.73;;;6.70;84.50;;;;;;4921778;29;20056;-67
2021/03/02 12:25:07;;;;;;;2.58;1.00;;;6.60;86.10;;;;;;4922108;29;20048;-67
2021/03/02 12:27:35;;;;;;;1.63;0.90;;;6.60;88.00;;;;;;4921869;29;20028;-66
2021/03/02 12:30:03;;;;;;;4.88;0.95;;;6.50;88.70;;;;;;4921078;29;20050;-67
2021/03/02 12:32:29;;;;;;;6.53;1.25;;;6.40;89.00;;;;;;4922164;29;20403;-68
2021/03/02 12:34:56;;;;;;;2.38;0.93;;;6.40;86.50;;;;;;4922170;29;20038;-68
2021/03/02 12:37:23;;;;;;;1.73;1.00;;;6.40;84.70;;;;;;4921737;29;20024;-68
2021/03/02 12:39:49;;;;;;;2.38;1.05;;;6.40;88.00;;;;;;4925754;29;20063;-68
2021/03/02 12:42:16;;;;;;;4.00;0.70;;;6.30;87.70;;;;;;4924102;29;20064;-67
2021/03/02 12:44:43;;;;;;;2.45;0.90;;;6.40;86.80;;;;;;4925128;29;20062;-67
2021/03/02 12:47:09;;;;;;;2.92;0.93;;;6.40;84.10;;;;;;4924511;29;20031;-67
2021/03/02 12:49:36;;;;;;;3.00;0.90;;;6.50;83.40;;;;;;4925559;29;20158;-66
2021/03/02 12:52:03;;;;;;;5.25;0.60;;;6.50;81.90;;;;;;4926265;29;20503;-67
2021/03/02 12:54:30;;;;;;;4.68;0.80;;;6.60;77.90;;;;;;4925352;29;20056;-67
2021/03/02 12:56:57;;;;;;;3.60;1.00;;;6.60;78.10;;;;;;4926313;29;20023;-68
2021/03/02 12:59:23;;;;;;;1.60;0.70;;;6.40;80.90;;;;;;4924264;29;20143;-66
2021/03/02 13:01:50;;;;;;;1.75;0.82;;;6.30;86.70;;;;;;4925368;29;20040;-67
2021/03/02 13:04:17;;;;;;;4.38;1.02;;;6.20;86.90;;;;;;4924913;29;20435;-67
2021/03/02 13:06:44;;;;;;;6.13;0.93;;;6.30;83.80;;;;;;4925104;29;20040;-67
2021/03/02 13:09:12;;;;;;;2.05;0.80;;;6.40;83.40;;;;;;4925109;29;20042;-67
2021/03/02 13:11:39;;;;;;;1.85;1.02;;;6.20;86.00;;;;;;4925328;29;20032;-67
2021/03/02 13:14:08;;;;;;;3.55;1.08;;;6.10;89.70;;;;;;4924577;29;20113;-67